createdAt,value
2023-04-20T00:00:11.859Z,99.90
2023-04-20T00:01:16.665Z,99.90
2023-04-20T00:02:18.872Z,99.90
2023-04-20T00:03:21.814Z,99.90
2023-04-20T00:04:24.134Z,99.90
2023-04-20T00:05:26.550Z,99.90
2023-04-20T00:06:33.062Z,99.90
2023-04-20T00:07:35.816Z,99.90
2023-04-20T00:08:37.838Z,99.90
2023-04-20T00:09:39.861Z,99.90
2023-04-20T00:10:41.960Z,99.90
2023-04-20T00:11:43.960Z,99.90
2023-04-20T00:12:45.974Z,99.90
2023-04-20T00:13:48.105Z,99.90
2023-04-20T00:14:50.370Z,99.90
2023-04-20T00:15:52.420Z,99.90
2023-04-20T00:16:54.499Z,99.90
2023-04-20T00:17:56.735Z,99.90
2023-04-20T00:19:02.204Z,99.90
2023-04-20T00:20:05.308Z,99.90
2023-04-20T00:21:07.815Z,99.90
2023-04-20T00:22:09.903Z,99.90
2023-04-20T00:23:11.945Z,99.90
2023-04-20T00:24:14.011Z,99.90
2023-04-20T00:25:16.111Z,99.90
2023-04-20T00:26:19.020Z,99.90
2023-04-20T00:27:24.863Z,99.90
2023-04-20T00:28:27.032Z,99.90
2023-04-20T00:29:29.229Z,99.90
2023-04-20T00:30:32.663Z,99.90
2023-04-20T00:31:34.707Z,99.90
2023-04-20T00:32:36.735Z,99.90
2023-04-20T00:33:38.801Z,99.90
2023-04-20T00:34:42.306Z,99.90
2023-04-20T00:35:44.312Z,99.90
2023-04-20T00:36:46.599Z,99.90
2023-04-20T00:37:48.635Z,99.90
2023-04-20T00:38:50.685Z,99.90
2023-04-20T00:39:52.898Z,99.90
2023-04-20T00:40:58.295Z,99.90
2023-04-20T00:42:07.718Z,99.90
2023-04-20T00:43:13.941Z,99.90
2023-04-20T00:44:16.176Z,99.90
2023-04-20T00:45:18.398Z,99.90
2023-04-20T00:46:21.358Z,99.90
2023-04-20T00:47:23.585Z,99.90
2023-04-20T00:48:25.790Z,99.90
2023-04-20T00:49:31.920Z,99.90
2023-04-20T00:50:34.788Z,99.90
2023-04-20T00:51:36.966Z,99.90
2023-04-20T00:52:41.139Z,99.90
2023-04-20T00:53:43.210Z,99.90
2023-04-20T00:54:45.701Z,99.90
2023-04-20T00:55:47.984Z,99.90
2023-04-20T00:56:50.852Z,99.90
2023-04-20T00:57:53.342Z,99.90
2023-04-20T00:58:55.935Z,99.90
2023-04-20T00:59:58.074Z,99.90
2023-04-20T01:01:00.073Z,99.90
2023-04-20T01:02:13.250Z,99.90
2023-04-20T01:03:17.003Z,99.90
2023-04-20T01:04:22.998Z,99.90
2023-04-20T01:05:27.048Z,99.90
2023-04-20T01:06:30.715Z,99.90
2023-04-20T01:07:32.890Z,99.90
2023-04-20T01:08:34.912Z,99.90
2023-04-20T01:09:39.645Z,99.90
2023-04-20T01:10:42.064Z,99.90
2023-04-20T01:11:44.082Z,99.90
2023-04-20T01:12:46.086Z,99.90
2023-04-20T01:13:49.240Z,99.90
2023-04-20T01:14:51.295Z,99.90
2023-04-20T01:15:53.926Z,99.90
2023-04-20T01:16:55.961Z,99.90
2023-04-20T01:17:58.062Z,99.90
2023-04-20T01:19:00.197Z,99.90
2023-04-20T01:20:02.326Z,99.90
2023-04-20T01:21:04.368Z,99.90
2023-04-20T01:22:08.055Z,99.90
2023-04-20T01:23:10.111Z,99.90
2023-04-20T01:24:12.068Z,99.90
2023-04-20T01:25:14.804Z,99.90
2023-04-20T01:26:18.926Z,99.90
2023-04-20T01:27:20.938Z,99.90
2023-04-20T01:28:23.079Z,99.90
2023-04-20T01:29:26.641Z,99.90
2023-04-20T01:30:29.478Z,99.90
2023-04-20T01:31:31.969Z,99.90
2023-04-20T01:32:34.573Z,99.90
2023-04-20T01:33:36.803Z,99.90
2023-04-20T01:34:39.197Z,99.90
2023-04-20T01:35:43.130Z,99.90
2023-04-20T01:36:45.749Z,99.90
2023-04-20T01:37:47.826Z,99.90
2023-04-20T01:38:50.047Z,99.90
2023-04-20T01:39:52.327Z,99.90
2023-04-20T01:40:56.392Z,99.90
2023-04-20T01:41:58.352Z,99.90
2023-04-20T01:43:00.277Z,99.90
2023-04-20T01:44:02.445Z,99.90
2023-04-20T01:45:07.241Z,99.90
2023-04-20T01:46:10.528Z,99.90
2023-04-20T01:47:12.543Z,99.90
2023-04-20T01:48:15.900Z,99.90
2023-04-20T01:49:18.012Z,99.90
2023-04-20T01:50:20.169Z,99.90
2023-04-20T01:51:22.359Z,99.90
2023-04-20T01:52:24.353Z,99.90
2023-04-20T01:53:27.102Z,99.90
2023-04-20T01:54:29.094Z,99.90
2023-04-20T01:55:31.046Z,99.90
2023-04-20T01:56:32.968Z,99.90
2023-04-20T01:57:35.116Z,99.90
2023-04-20T01:58:37.139Z,99.90
2023-04-20T01:59:39.225Z,99.90
2023-04-20T02:00:41.410Z,99.90
2023-04-20T02:01:43.434Z,99.90
2023-04-20T02:02:45.512Z,99.90
2023-04-20T02:03:49.640Z,99.90
2023-04-20T02:04:53.403Z,99.90
2023-04-20T02:05:55.777Z,99.90
2023-04-20T02:06:57.892Z,99.90
2023-04-20T02:07:59.845Z,99.90
2023-04-20T02:09:01.923Z,99.90
2023-04-20T02:10:04.948Z,99.90
2023-04-20T02:11:06.919Z,99.90
2023-04-20T02:12:10.829Z,99.90
2023-04-20T02:13:15.057Z,99.90
2023-04-20T02:14:17.129Z,99.90
2023-04-20T02:15:19.156Z,99.90
2023-04-20T02:16:23.009Z,99.90
2023-04-20T02:17:25.153Z,99.90
2023-04-20T02:18:27.176Z,99.90
2023-04-20T02:19:29.222Z,99.90
2023-04-20T02:20:31.493Z,99.90
2023-04-20T02:21:33.425Z,99.90
2023-04-20T02:22:36.230Z,99.90
2023-04-20T02:23:38.292Z,99.90
2023-04-20T02:24:41.454Z,99.90
2023-04-20T02:25:43.418Z,99.90
2023-04-20T02:26:47.280Z,99.90
2023-04-20T02:27:49.665Z,99.90
2023-04-20T02:28:51.812Z,99.90
2023-04-20T02:29:53.994Z,99.90
2023-04-20T02:30:56.104Z,99.90
2023-04-20T02:31:58.203Z,99.90
2023-04-20T02:33:00.441Z,99.90
2023-04-20T02:34:02.818Z,99.90
2023-04-20T02:35:05.452Z,99.90
2023-04-20T02:36:07.911Z,99.90
2023-04-20T02:37:09.870Z,99.90
2023-04-20T02:38:11.931Z,99.90
2023-04-20T02:39:14.670Z,99.90
2023-04-20T02:40:16.830Z,99.90
2023-04-20T02:41:19.098Z,99.90
2023-04-20T02:42:21.224Z,99.90
2023-04-20T02:43:24.191Z,99.90
2023-04-20T02:44:26.258Z,99.90
2023-04-20T02:45:28.276Z,99.90
2023-04-20T02:46:30.415Z,99.90
2023-04-20T02:47:32.573Z,99.90
2023-04-20T02:48:34.832Z,99.90
2023-04-20T02:49:37.131Z,99.90
2023-04-20T02:50:39.232Z,99.90
2023-04-20T02:51:52.242Z,99.90
2023-04-20T02:52:54.233Z,99.90
2023-04-20T02:53:56.366Z,99.90
2023-04-20T02:55:03.739Z,99.90
2023-04-20T02:56:06.142Z,99.90
2023-04-20T02:57:16.786Z,99.90
2023-04-20T02:58:18.868Z,99.90
2023-04-20T02:59:47.472Z,99.90
2023-04-20T03:01:46.358Z,99.90
2023-04-20T03:02:55.562Z,99.90
2023-04-20T03:03:58.272Z,99.90
2023-04-20T03:05:00.435Z,99.90
2023-04-20T03:06:05.306Z,99.90
2023-04-20T03:07:07.983Z,99.90
2023-04-20T03:08:11.988Z,99.90
2023-04-20T03:09:14.830Z,99.90
2023-04-20T03:10:28.084Z,99.90
2023-04-20T03:11:46.177Z,99.90
2023-04-20T03:12:56.651Z,99.90
2023-04-20T03:14:15.046Z,99.90
2023-04-20T03:15:18.515Z,99.90
2023-04-20T03:16:41.928Z,99.90
2023-04-20T03:17:54.875Z,99.90
2023-04-20T03:19:11.484Z,99.90
2023-04-20T03:20:26.926Z,99.90
2023-04-20T03:21:33.139Z,99.90
2023-04-20T03:22:35.266Z,99.90
2023-04-20T03:23:37.851Z,99.90
2023-04-20T03:24:40.832Z,99.90
2023-04-20T03:25:58.460Z,99.90
2023-04-20T03:27:18.945Z,99.90
2023-04-20T03:28:38.961Z,99.90
2023-04-20T03:29:41.347Z,99.90
2023-04-20T03:30:43.831Z,99.90
2023-04-20T03:31:50.416Z,99.90
2023-04-20T03:32:52.691Z,99.90
2023-04-20T03:33:57.976Z,99.90
2023-04-20T03:35:00.142Z,99.90
2023-04-20T03:36:02.294Z,99.90
2023-04-20T03:37:04.312Z,99.90
2023-04-20T03:38:06.939Z,99.90
2023-04-20T03:39:09.806Z,99.90
2023-04-20T03:40:12.839Z,99.90
2023-04-20T03:41:15.232Z,99.90
2023-04-20T03:42:17.315Z,99.90
2023-04-20T03:43:19.342Z,99.90
2023-04-20T03:44:21.376Z,99.90
2023-04-20T03:45:23.499Z,99.90
2023-04-20T03:46:25.773Z,99.90
2023-04-20T03:47:28.265Z,99.90
2023-04-20T03:48:30.821Z,99.90
2023-04-20T03:49:32.900Z,99.90
2023-04-20T03:50:34.964Z,99.90
2023-04-20T03:51:36.985Z,99.90
2023-04-20T03:52:39.173Z,99.90
2023-04-20T03:53:41.204Z,99.90
2023-04-20T03:54:45.640Z,99.90
2023-04-20T03:55:51.124Z,99.90
2023-04-20T03:56:59.001Z,99.90
2023-04-20T03:58:03.480Z,99.90
2023-04-20T03:59:13.657Z,99.90
2023-04-20T04:00:18.624Z,99.90
2023-04-20T04:01:20.587Z,99.90
2023-04-20T04:02:24.987Z,99.90
2023-04-20T04:03:28.245Z,99.90
2023-04-20T04:04:30.748Z,99.90
2023-04-20T04:05:33.726Z,99.90
2023-04-20T04:06:36.367Z,99.90
2023-04-20T04:07:38.392Z,99.90
2023-04-20T04:08:40.712Z,99.90
2023-04-20T04:09:43.149Z,99.90
2023-04-20T04:10:46.544Z,99.90
2023-04-20T04:11:48.533Z,99.90
2023-04-20T04:12:50.619Z,99.90
2023-04-20T04:13:53.009Z,99.90
2023-04-20T04:14:55.722Z,99.90
2023-04-20T04:16:00.161Z,99.90
2023-04-20T04:17:03.033Z,99.90
2023-04-20T04:18:06.974Z,99.90
2023-04-20T04:19:11.841Z,99.90
2023-04-20T04:20:14.869Z,99.90
2023-04-20T04:21:17.707Z,99.90
2023-04-20T04:22:26.805Z,99.90
2023-04-20T04:23:49.208Z,99.90
2023-04-20T04:25:10.637Z,99.90
2023-04-20T04:26:13.074Z,99.90
2023-04-20T04:27:18.918Z,99.90
2023-04-20T04:28:28.692Z,99.90
2023-04-20T04:29:39.439Z,99.90
2023-04-20T04:30:44.806Z,99.90
2023-04-20T04:31:47.071Z,99.90
2023-04-20T04:32:52.412Z,99.90
2023-04-20T04:33:54.654Z,99.90
2023-04-20T04:35:08.581Z,99.90
2023-04-20T04:36:10.700Z,99.90
2023-04-20T04:37:13.132Z,99.90
2023-04-20T04:38:19.893Z,99.90
2023-04-20T04:39:24.269Z,99.90
2023-04-20T04:40:34.755Z,99.90
2023-04-20T04:41:38.437Z,99.90
2023-04-20T04:43:00.810Z,99.90
2023-04-20T04:44:03.674Z,99.90
2023-04-20T04:45:07.440Z,99.90
2023-04-20T04:46:13.362Z,99.90
2023-04-20T04:47:17.778Z,99.90
2023-04-20T04:48:20.535Z,99.90
2023-04-20T04:49:25.001Z,99.90
2023-04-20T04:50:27.162Z,99.90
2023-04-20T04:51:29.247Z,99.90
2023-04-20T04:52:31.477Z,99.90
2023-04-20T04:53:33.515Z,99.90
2023-04-20T04:54:35.557Z,99.90
2023-04-20T04:55:37.555Z,99.90
2023-04-20T04:56:39.586Z,99.90
2023-04-20T04:57:41.635Z,99.90
2023-04-20T04:58:43.714Z,99.90
2023-04-20T04:59:45.797Z,99.90
2023-04-20T05:00:48.294Z,99.90
2023-04-20T05:01:50.416Z,99.90
2023-04-20T05:02:55.511Z,99.90
2023-04-20T05:03:57.714Z,99.90
2023-04-20T05:05:00.382Z,99.90
2023-04-20T05:06:02.409Z,99.90
2023-04-20T05:07:04.454Z,99.90
2023-04-20T05:08:06.515Z,99.90
2023-04-20T05:09:08.516Z,99.90
2023-04-20T05:10:10.846Z,99.90
2023-04-20T05:11:12.853Z,99.90
2023-04-20T05:12:14.843Z,99.90
2023-04-20T05:13:16.858Z,99.90
2023-04-20T05:14:18.894Z,99.90
2023-04-20T05:15:20.913Z,99.90
2023-04-20T05:16:22.949Z,99.90
2023-04-20T05:17:25.018Z,99.90
2023-04-20T05:18:27.009Z,99.90
2023-04-20T05:19:28.969Z,99.90
2023-04-20T05:20:31.000Z,99.90
2023-04-20T05:21:33.200Z,99.90
2023-04-20T05:22:35.202Z,99.90
2023-04-20T05:23:37.280Z,99.90
2023-04-20T05:24:39.565Z,99.90
2023-04-20T05:25:41.661Z,99.90
2023-04-20T05:26:44.062Z,99.90
2023-04-20T05:27:46.356Z,99.90
2023-04-20T05:28:48.379Z,99.90
2023-04-20T05:29:50.788Z,99.90
2023-04-20T05:30:55.182Z,99.90
2023-04-20T05:31:57.157Z,99.90
2023-04-20T05:32:59.232Z,99.90
2023-04-20T05:34:02.495Z,99.90
2023-04-20T05:35:04.819Z,99.90
2023-04-20T05:36:10.162Z,99.90
2023-04-20T05:37:12.499Z,99.90
2023-04-20T05:38:14.432Z,99.90
2023-04-20T05:39:17.044Z,99.90
2023-04-20T05:40:19.444Z,99.90
2023-04-20T05:41:26.778Z,99.90
2023-04-20T05:42:28.886Z,99.90
2023-04-20T05:43:32.193Z,99.90
2023-04-20T05:44:36.415Z,99.90
2023-04-20T05:45:38.331Z,99.90
2023-04-20T05:46:40.395Z,99.90
2023-04-20T05:47:42.535Z,99.90
2023-04-20T05:48:44.578Z,99.90
2023-04-20T05:49:46.611Z,99.90
2023-04-20T05:50:48.654Z,99.90
2023-04-20T05:51:51.452Z,99.90
2023-04-20T05:52:54.155Z,99.90
2023-04-20T05:53:56.322Z,99.90
2023-04-20T05:54:59.574Z,99.90
2023-04-20T05:56:01.560Z,99.90
2023-04-20T05:57:05.396Z,99.90
2023-04-20T05:58:07.422Z,99.90
2023-04-20T05:59:10.035Z,99.90
2023-04-20T06:00:14.423Z,99.90
2023-04-20T06:01:16.393Z,99.90
2023-04-20T06:02:18.490Z,99.90
2023-04-20T06:03:21.184Z,99.90
2023-04-20T06:04:23.946Z,99.90
2023-04-20T06:05:26.270Z,99.90
2023-04-20T06:06:28.365Z,99.90
2023-04-20T06:07:30.535Z,99.90
2023-04-20T06:08:32.597Z,99.90
2023-04-20T06:09:34.627Z,99.90
2023-04-20T06:10:36.667Z,99.90
2023-04-20T06:11:38.644Z,99.90
2023-04-20T06:12:40.725Z,99.90
2023-04-20T06:13:42.743Z,99.90
2023-04-20T06:14:44.789Z,99.90
2023-04-20T06:15:47.426Z,99.90
2023-04-20T06:16:49.479Z,99.90
2023-04-20T06:17:51.493Z,99.90
2023-04-20T06:19:24.844Z,99.90
2023-04-20T06:20:26.882Z,99.90
2023-04-20T06:21:28.938Z,99.90
2023-04-20T06:22:31.029Z,99.90
2023-04-20T06:23:33.203Z,99.90
2023-04-20T06:24:35.852Z,99.90
2023-04-20T06:25:38.132Z,99.90
2023-04-20T06:26:40.068Z,99.90
2023-04-20T06:27:42.391Z,99.90
2023-04-20T06:28:45.502Z,99.90
2023-04-20T06:29:47.479Z,99.90
2023-04-20T06:30:49.616Z,99.90
2023-04-20T06:31:51.751Z,99.90
2023-04-20T06:32:53.878Z,99.90
2023-04-20T06:33:56.502Z,99.90
2023-04-20T06:34:58.584Z,99.90
2023-04-20T06:36:00.846Z,99.90
2023-04-20T06:37:02.817Z,99.90
2023-04-20T06:38:04.814Z,99.90
2023-04-20T06:39:06.884Z,99.90
2023-04-20T06:40:09.483Z,99.90
2023-04-20T06:41:11.528Z,99.90
2023-04-20T06:42:14.182Z,99.90
2023-04-20T06:43:16.213Z,99.90
2023-04-20T06:44:18.430Z,99.90
2023-04-20T06:45:20.606Z,99.90
2023-04-20T06:46:22.678Z,99.90
2023-04-20T06:47:31.436Z,99.90
2023-04-20T06:48:34.597Z,99.90
2023-04-20T06:49:37.672Z,99.90
2023-04-20T06:50:39.804Z,99.90
2023-04-20T06:51:41.885Z,99.90
2023-04-20T06:52:43.937Z,99.90
2023-04-20T06:53:45.991Z,99.90
2023-04-20T06:54:47.920Z,99.90
2023-04-20T06:55:50.017Z,99.90
2023-04-20T06:56:52.039Z,99.90
2023-04-20T06:57:53.960Z,99.90
2023-04-20T06:58:56.101Z,99.90
2023-04-20T07:00:01.254Z,99.90
2023-04-20T07:01:03.384Z,99.90
2023-04-20T07:02:05.393Z,99.90
2023-04-20T07:03:07.558Z,99.90
2023-04-20T07:04:10.008Z,99.90
2023-04-20T07:05:12.587Z,99.90
2023-04-20T07:06:15.689Z,99.90
2023-04-20T07:07:17.784Z,99.90
2023-04-20T07:08:20.365Z,99.90
2023-04-20T07:09:23.178Z,99.90
2023-04-20T07:10:25.279Z,99.90
2023-04-20T07:11:27.346Z,99.90
2023-04-20T07:12:29.545Z,99.90
2023-04-20T07:13:33.847Z,99.90
2023-04-20T07:14:36.186Z,99.90
2023-04-20T07:15:38.214Z,99.90
2023-04-20T07:16:40.409Z,99.90
2023-04-20T07:17:42.519Z,99.90
2023-04-20T07:18:44.610Z,99.90
2023-04-20T07:19:46.672Z,99.90
2023-04-20T07:20:48.778Z,99.90
2023-04-20T07:21:50.916Z,99.90
2023-04-20T07:22:52.982Z,99.90
2023-04-20T07:23:56.568Z,99.90
2023-04-20T07:24:58.690Z,99.90
2023-04-20T07:26:00.815Z,99.90
2023-04-20T07:27:03.172Z,99.90
2023-04-20T07:28:05.235Z,99.90
2023-04-20T07:29:07.163Z,99.90
2023-04-20T07:30:10.747Z,99.90
2023-04-20T07:31:12.894Z,99.90
2023-04-20T07:32:15.162Z,99.90
2023-04-20T07:33:17.311Z,99.90
2023-04-20T07:34:19.523Z,99.90
2023-04-20T07:35:21.983Z,99.90
2023-04-20T07:36:24.142Z,99.90
2023-04-20T07:37:27.389Z,99.90
2023-04-20T07:38:29.394Z,99.90
2023-04-20T07:39:31.688Z,99.90
2023-04-20T07:40:33.751Z,99.90
2023-04-20T07:41:36.869Z,99.90
2023-04-20T07:42:39.075Z,99.90
2023-04-20T07:43:41.137Z,99.90
2023-04-20T07:44:43.165Z,99.90
2023-04-20T07:45:45.272Z,99.90
2023-04-20T07:46:47.390Z,99.90
2023-04-20T07:47:51.544Z,99.90
2023-04-20T07:48:53.630Z,99.90
2023-04-20T07:49:55.862Z,99.90
2023-04-20T07:50:57.956Z,99.90
2023-04-20T07:52:12.831Z,99.90
2023-04-20T07:53:17.671Z,99.90
2023-04-20T07:54:19.679Z,99.90
2023-04-20T07:55:21.852Z,99.90
2023-04-20T07:56:23.804Z,99.90
2023-04-20T07:57:26.819Z,99.90
2023-04-20T07:58:28.822Z,99.90
2023-04-20T07:59:30.992Z,99.90
2023-04-20T08:00:33.057Z,99.90
2023-04-20T08:01:36.038Z,99.90
2023-04-20T08:02:38.161Z,99.90
2023-04-20T08:03:41.773Z,99.90
2023-04-20T08:04:44.830Z,99.90
2023-04-20T08:05:47.141Z,99.90
2023-04-20T08:06:49.317Z,99.90
2023-04-20T08:07:51.464Z,99.90
2023-04-20T08:08:53.613Z,99.90
2023-04-20T08:09:56.956Z,99.90
2023-04-20T08:10:59.124Z,99.90
2023-04-20T08:12:01.615Z,99.90
2023-04-20T08:13:03.712Z,99.90
2023-04-20T08:14:05.909Z,99.90
2023-04-20T08:15:08.750Z,99.90
2023-04-20T08:16:10.922Z,99.90
2023-04-20T08:17:12.943Z,99.90
2023-04-20T08:18:14.984Z,99.90
2023-04-20T08:19:17.080Z,99.90
2023-04-20T08:20:19.254Z,99.90
2023-04-20T08:21:25.404Z,99.90
2023-04-20T08:22:30.152Z,99.90
2023-04-20T08:23:32.526Z,99.90
2023-04-20T08:24:34.648Z,99.90
2023-04-20T08:25:40.516Z,99.90
2023-04-20T08:26:43.416Z,99.90
2023-04-20T08:27:45.518Z,99.90
2023-04-20T08:28:47.534Z,99.90
2023-04-20T08:29:49.593Z,99.90
2023-04-20T08:30:53.257Z,99.90
2023-04-20T08:31:55.817Z,99.90
2023-04-20T08:32:59.162Z,99.90
2023-04-20T08:34:01.683Z,99.90
2023-04-20T08:35:05.354Z,99.90
2023-04-20T08:36:07.531Z,99.90
2023-04-20T08:37:09.660Z,99.90
2023-04-20T08:38:15.611Z,99.90
2023-04-20T08:39:21.812Z,99.90
2023-04-20T08:40:25.138Z,99.90
2023-04-20T08:41:27.164Z,99.90
2023-04-20T08:42:29.170Z,99.90
2023-04-20T08:43:32.409Z,99.90
2023-04-20T08:44:34.471Z,99.90
2023-04-20T08:45:37.148Z,99.90
2023-04-20T08:46:45.389Z,99.90
2023-04-20T08:47:49.326Z,99.90
2023-04-20T08:48:55.090Z,99.90
2023-04-20T08:49:59.020Z,99.90
2023-04-20T08:51:02.011Z,99.90
2023-04-20T08:52:04.007Z,99.90
2023-04-20T08:53:06.026Z,99.90
2023-04-20T08:54:08.027Z,99.90
2023-04-20T08:55:10.586Z,99.90
2023-04-20T08:56:20.209Z,99.90
2023-04-20T08:57:22.240Z,99.90
2023-04-20T08:58:29.289Z,99.90
2023-04-20T08:59:31.594Z,99.90
2023-04-20T09:00:33.557Z,99.90
2023-04-20T09:01:36.428Z,99.90
2023-04-20T09:02:52.283Z,99.90
2023-04-20T09:03:54.525Z,99.90
2023-04-20T09:05:05.132Z,99.90
2023-04-20T09:06:18.368Z,99.90
2023-04-20T09:07:21.574Z,99.90
2023-04-20T09:08:35.528Z,99.90
2023-04-20T09:09:38.811Z,99.90
2023-04-20T09:10:43.520Z,99.90
2023-04-20T09:11:46.596Z,99.90
2023-04-20T09:12:49.081Z,99.90
2023-04-20T09:14:06.703Z,99.90
2023-04-20T09:15:10.539Z,99.90
2023-04-20T09:16:13.803Z,99.90
2023-04-20T09:17:18.038Z,99.90
2023-04-20T09:18:20.162Z,99.90
2023-04-20T09:19:26.829Z,99.90
2023-04-20T09:20:33.714Z,99.90
2023-04-20T09:21:35.972Z,99.90
2023-04-20T09:22:38.464Z,99.90
2023-04-20T09:23:41.072Z,99.90
2023-04-20T09:24:43.176Z,99.90
2023-04-20T09:25:50.925Z,99.90
2023-04-20T09:26:52.937Z,99.90
2023-04-20T09:27:57.108Z,99.90
2023-04-20T09:28:59.260Z,99.90
2023-04-20T09:30:04.130Z,99.90
2023-04-20T09:31:06.217Z,99.90
2023-04-20T09:32:08.608Z,99.90
2023-04-20T09:33:12.556Z,99.90
2023-04-20T09:34:15.358Z,99.90
2023-04-20T09:35:24.254Z,99.90
2023-04-20T09:36:37.831Z,99.90
2023-04-20T09:37:48.294Z,99.90
2023-04-20T09:39:06.876Z,99.90
2023-04-20T09:40:09.749Z,99.90
2023-04-20T09:41:11.940Z,99.90
2023-04-20T09:42:16.040Z,99.90
2023-04-20T09:43:24.825Z,99.90
2023-04-20T09:44:26.860Z,99.90
2023-04-20T09:45:29.780Z,99.90
2023-04-20T09:46:33.800Z,99.90
2023-04-20T09:47:37.214Z,99.90
2023-04-20T09:48:39.617Z,99.90
2023-04-20T09:49:44.164Z,99.90
2023-04-20T09:50:49.635Z,99.90
2023-04-20T09:51:52.713Z,99.90
2023-04-20T09:52:55.231Z,99.90
2023-04-20T09:53:59.146Z,99.90
2023-04-20T09:55:01.254Z,99.90
2023-04-20T09:56:06.083Z,99.90
2023-04-20T09:57:09.665Z,99.90
2023-04-20T09:58:12.268Z,99.90
2023-04-20T09:59:14.525Z,99.90
2023-04-20T10:00:17.099Z,99.90
2023-04-20T10:01:19.742Z,99.90
2023-04-20T10:02:21.962Z,99.90
2023-04-20T10:03:24.202Z,99.90
2023-04-20T10:04:26.725Z,99.90
2023-04-20T10:05:36.759Z,99.90
2023-04-20T10:06:39.152Z,99.90
2023-04-20T10:07:41.856Z,99.90
2023-04-20T10:08:44.012Z,99.90
2023-04-20T10:09:46.013Z,99.90
2023-04-20T10:10:50.352Z,99.90
2023-04-20T10:11:55.098Z,99.90
2023-04-20T10:13:03.195Z,99.90
2023-04-20T10:14:25.088Z,99.90
2023-04-20T10:15:53.291Z,99.90
2023-04-20T10:17:02.497Z,99.60
2023-04-20T10:18:23.976Z,99.90
2023-04-20T10:19:43.244Z,98.10
2023-04-20T10:20:45.987Z,98.80
2023-04-20T10:21:50.041Z,98.90
2023-04-20T10:22:53.261Z,99.10
2023-04-20T10:23:56.282Z,98.20
2023-04-20T10:24:58.848Z,98.80
2023-04-20T10:26:01.889Z,99.90
2023-04-20T10:27:04.851Z,96.80
2023-04-20T10:28:10.487Z,96.10
2023-04-20T10:29:27.382Z,96.40
2023-04-20T10:30:30.339Z,97.80
2023-04-20T10:31:40.535Z,95.60
2023-04-20T10:32:42.751Z,96.00
2023-04-20T10:33:56.091Z,94.00
2023-04-20T10:36:01.799Z,95.70
2023-04-20T10:37:14.314Z,97.10
2023-04-20T10:38:36.926Z,98.30
2023-04-20T10:39:47.208Z,99.10
2023-04-20T10:40:49.430Z,99.00
2023-04-20T10:42:04.037Z,98.90
2023-04-20T10:43:19.541Z,97.80
2023-04-20T10:44:22.041Z,96.70
2023-04-20T10:45:35.692Z,96.80
2023-04-20T10:46:37.896Z,96.80
2023-04-20T10:47:45.237Z,95.70
2023-04-20T10:48:54.577Z,95.50
2023-04-20T10:50:07.748Z,96.10
2023-04-20T10:51:10.615Z,97.20
2023-04-20T10:52:12.525Z,97.90
2023-04-20T10:53:23.149Z,99.10
2023-04-20T10:54:25.882Z,99.00
2023-04-20T10:55:28.296Z,98.50
2023-04-20T10:56:37.563Z,99.10
2023-04-20T10:57:39.590Z,99.10
2023-04-20T10:58:41.745Z,96.90
2023-04-20T10:59:44.346Z,95.80
2023-04-20T11:00:56.655Z,96.40
2023-04-20T11:02:01.521Z,95.10
2023-04-20T11:03:03.766Z,94.40
2023-04-20T11:04:07.165Z,93.90
2023-04-20T11:05:12.752Z,94.50
2023-04-20T11:06:15.650Z,93.90
2023-04-20T11:07:17.699Z,93.50
2023-04-20T11:08:19.786Z,92.60
2023-04-20T11:09:26.520Z,92.50
2023-04-20T11:10:39.801Z,93.70
2023-04-20T11:11:41.832Z,94.10
2023-04-20T11:12:43.842Z,94.60
2023-04-20T11:13:46.001Z,95.00
2023-04-20T11:14:53.437Z,96.00
2023-04-20T11:15:55.538Z,96.00
2023-04-20T11:16:57.913Z,95.50
2023-04-20T11:18:10.718Z,95.20
2023-04-20T11:19:12.761Z,96.20
2023-04-20T11:20:17.620Z,94.90
2023-04-20T11:21:21.160Z,95.60
2023-04-20T11:22:23.562Z,94.70
2023-04-20T11:23:27.493Z,94.40
2023-04-20T11:24:31.261Z,95.10
2023-04-20T11:25:33.426Z,94.50
2023-04-20T11:26:37.642Z,94.50
2023-04-20T11:27:40.998Z,94.50
2023-04-20T11:28:56.236Z,93.80
2023-04-20T11:29:59.815Z,94.00
2023-04-20T11:31:02.415Z,94.50
2023-04-20T11:32:09.656Z,94.70
2023-04-20T11:33:12.473Z,94.10
2023-04-20T11:34:18.262Z,93.60
2023-04-20T11:35:20.611Z,93.20
2023-04-20T11:36:24.029Z,93.60
2023-04-20T11:37:26.905Z,94.60
2023-04-20T11:38:33.840Z,94.50
2023-04-20T11:39:36.700Z,94.80
2023-04-20T11:40:38.793Z,94.10
2023-04-20T11:41:42.490Z,93.30
2023-04-20T11:42:44.954Z,93.10
2023-04-20T11:43:47.165Z,92.90
2023-04-20T11:44:49.188Z,94.60
2023-04-20T11:45:51.253Z,94.40
2023-04-20T11:46:54.741Z,94.30
2023-04-20T11:47:57.070Z,94.60
2023-04-20T11:49:00.857Z,94.20
2023-04-20T11:50:02.960Z,94.10
2023-04-20T11:51:05.032Z,93.70
2023-04-20T11:52:07.058Z,93.80
2023-04-20T11:53:10.352Z,94.80
2023-04-20T11:54:12.956Z,94.20
2023-04-20T11:55:15.316Z,93.00
2023-04-20T11:56:17.570Z,92.50
2023-04-20T11:57:21.688Z,92.70
2023-04-20T11:58:23.847Z,93.10
2023-04-20T11:59:26.134Z,93.70
2023-04-20T12:00:28.356Z,93.10
2023-04-20T12:01:30.909Z,92.50
2023-04-20T12:02:33.136Z,92.40
2023-04-20T12:03:35.464Z,92.20
2023-04-20T12:04:39.135Z,93.30
2023-04-20T12:05:43.304Z,92.30
2023-04-20T12:06:45.482Z,92.10
2023-04-20T12:07:47.497Z,91.70
2023-04-20T12:08:49.598Z,92.50
2023-04-20T12:09:51.692Z,91.60
2023-04-20T12:10:54.742Z,91.80
2023-04-20T12:11:57.995Z,92.40
2023-04-20T12:13:01.246Z,92.80
2023-04-20T12:14:04.664Z,92.90
2023-04-20T12:15:07.616Z,92.80
2023-04-20T12:16:09.645Z,92.80
2023-04-20T12:17:11.843Z,93.00
2023-04-20T12:18:13.849Z,93.30
2023-04-20T12:19:16.382Z,93.50
2023-04-20T12:20:18.741Z,93.40
2023-04-20T12:21:20.946Z,93.20
2023-04-20T12:22:23.023Z,92.60
2023-04-20T12:23:24.989Z,93.10
2023-04-20T12:24:27.019Z,92.60
2023-04-20T12:25:29.023Z,92.10
2023-04-20T12:26:37.851Z,91.70
2023-04-20T12:27:40.306Z,92.40
2023-04-20T12:28:42.377Z,92.30
2023-04-20T12:29:44.316Z,91.80
2023-04-20T12:30:46.300Z,91.90
2023-04-20T12:31:48.303Z,92.00
2023-04-20T12:32:50.455Z,92.40
2023-04-20T12:33:52.535Z,92.90
2023-04-20T12:34:54.556Z,92.10
2023-04-20T12:35:56.590Z,92.40
2023-04-20T12:36:58.600Z,92.40
2023-04-20T12:38:00.736Z,92.90
2023-04-20T12:39:03.681Z,92.50
2023-04-20T12:40:07.315Z,92.70
2023-04-20T12:41:14.851Z,92.20
2023-04-20T12:42:16.932Z,92.10
2023-04-20T12:43:18.917Z,92.50
2023-04-20T12:44:21.162Z,92.40
2023-04-20T12:45:23.466Z,93.10
2023-04-20T12:46:25.669Z,92.90
2023-04-20T12:47:27.868Z,92.50
2023-04-20T12:48:29.859Z,92.60
2023-04-20T12:49:33.606Z,92.80
2023-04-20T12:50:35.935Z,93.80
2023-04-20T12:51:37.905Z,92.90
2023-04-20T12:52:39.958Z,92.50
2023-04-20T12:53:42.088Z,91.80
2023-04-20T12:54:44.341Z,92.10
2023-04-20T12:55:46.577Z,92.20
2023-04-20T12:56:48.819Z,91.60
2023-04-20T12:57:51.675Z,91.50
2023-04-20T12:58:53.659Z,91.90
2023-04-20T12:59:56.468Z,91.60
2023-04-20T13:00:58.930Z,91.80
2023-04-20T13:02:01.129Z,92.50
2023-04-20T13:03:03.382Z,92.20
2023-04-20T13:04:05.635Z,92.50
2023-04-20T13:05:08.405Z,92.00
2023-04-20T13:06:14.186Z,92.10
2023-04-20T13:07:16.590Z,91.90
2023-04-20T13:08:19.831Z,91.80
2023-04-20T13:09:26.877Z,92.00
2023-04-20T13:10:28.915Z,91.70
2023-04-20T13:11:31.008Z,91.70
2023-04-20T13:12:33.163Z,92.50
2023-04-20T13:13:35.162Z,91.80
2023-04-20T13:14:37.227Z,92.70
2023-04-20T13:15:39.863Z,92.40
2023-04-20T13:16:42.061Z,91.80
2023-04-20T13:17:44.113Z,91.80
2023-04-20T13:18:46.197Z,91.30
2023-04-20T13:19:49.629Z,92.00
2023-04-20T13:20:51.712Z,92.10
2023-04-20T13:21:53.959Z,92.20
2023-04-20T13:23:57.310Z,92.20
2023-04-20T13:25:22.144Z,92.10
2023-04-20T13:26:28.110Z,91.30
2023-04-20T13:28:16.281Z,91.70
2023-04-20T13:29:26.078Z,91.70
2023-04-20T13:30:28.304Z,92.30
2023-04-20T13:31:31.381Z,92.90
2023-04-20T13:32:34.235Z,92.40
2023-04-20T13:33:45.339Z,92.80
2023-04-20T13:34:47.458Z,92.30
2023-04-20T13:35:49.618Z,91.80
2023-04-20T13:36:51.912Z,91.40
2023-04-20T13:37:53.991Z,91.40
2023-04-20T13:38:56.818Z,91.80
2023-04-20T13:39:59.154Z,91.10
2023-04-20T13:41:01.127Z,91.20
2023-04-20T13:42:03.167Z,91.00
2023-04-20T13:43:05.175Z,91.20
2023-04-20T13:44:07.936Z,91.20
2023-04-20T13:45:10.524Z,91.20